createdAt,value
2023-04-20T00:00:26.771Z,20.10
2023-04-20T00:02:54.163Z,20.10
2023-04-20T00:05:21.495Z,20.10
2023-04-20T00:07:48.476Z,20.10
2023-04-20T00:10:15.514Z,20.10
2023-04-20T00:12:42.657Z,20.00
2023-04-20T00:15:09.710Z,20.10
2023-04-20T00:17:38.503Z,20.10
2023-04-20T00:20:06.119Z,20.00
2023-04-20T00:22:32.757Z,20.00
2023-04-20T00:24:59.432Z,20.10
2023-04-20T00:27:26.019Z,20.10
2023-04-20T00:29:52.650Z,20.10
2023-04-20T00:32:19.268Z,20.10
2023-04-20T00:34:45.915Z,20.00
2023-04-20T00:37:12.504Z,20.10
2023-04-20T00:39:39.178Z,20.10
2023-04-20T00:42:09.365Z,20.10
2023-04-20T00:44:36.069Z,20.00
2023-04-20T00:47:02.739Z,20.00
2023-04-20T00:49:30.860Z,20.10
2023-04-20T00:51:58.288Z,20.10
2023-04-20T00:54:26.380Z,20.00
2023-04-20T00:56:56.096Z,20.10
2023-04-20T00:59:22.818Z,20.10
2023-04-20T01:01:49.843Z,20.10
2023-04-20T01:04:16.966Z,20.00
2023-04-20T01:06:43.873Z,20.00
2023-04-20T01:09:10.570Z,20.10
2023-04-20T01:11:37.261Z,20.10
2023-04-20T01:14:03.884Z,20.10
2023-04-20T01:16:31.851Z,20.00
2023-04-20T01:18:58.610Z,20.00
2023-04-20T01:21:25.588Z,20.10
2023-04-20T01:23:52.332Z,20.00
2023-04-20T01:26:21.273Z,20.00
2023-04-20T01:28:47.847Z,20.10
2023-04-20T01:31:14.500Z,20.10
2023-04-20T01:33:41.498Z,20.10
2023-04-20T01:36:09.285Z,20.10
2023-04-20T01:38:36.367Z,20.10
2023-04-20T01:41:05.005Z,20.00
2023-04-20T01:43:32.654Z,20.10
2023-04-20T01:46:00.543Z,20.10
2023-04-20T01:48:27.415Z,20.00
2023-04-20T01:50:54.104Z,20.10
2023-04-20T01:53:21.150Z,20.00
2023-04-20T01:55:48.545Z,20.00
2023-04-20T01:58:15.401Z,20.00
2023-04-20T02:00:42.195Z,20.00
2023-04-20T02:03:09.287Z,20.00
2023-04-20T02:05:36.038Z,20.00
2023-04-20T02:08:02.672Z,20.00
2023-04-20T02:10:29.357Z,20.00
2023-04-20T02:12:56.071Z,20.00
2023-04-20T02:15:22.697Z,20.00
2023-04-20T02:17:52.221Z,20.00
2023-04-20T02:20:22.570Z,20.00
2023-04-20T02:22:49.223Z,20.00
2023-04-20T02:25:15.989Z,20.00
2023-04-20T02:27:42.620Z,20.00
2023-04-20T02:30:10.366Z,20.00
2023-04-20T02:32:37.063Z,20.00
2023-04-20T02:35:04.511Z,20.00
2023-04-20T02:37:31.413Z,20.00
2023-04-20T02:39:58.257Z,20.00
2023-04-20T02:42:24.846Z,20.00
2023-04-20T02:44:52.733Z,20.00
2023-04-20T02:47:19.673Z,20.00
2023-04-20T02:49:47.234Z,20.00
2023-04-20T02:52:14.160Z,20.00
2023-04-20T02:54:41.023Z,20.00
2023-04-20T02:57:07.725Z,20.00
2023-04-20T02:59:34.344Z,20.00
2023-04-20T03:02:00.960Z,20.00
2023-04-20T03:04:27.972Z,20.00
2023-04-20T03:06:54.839Z,20.00
2023-04-20T03:09:21.972Z,20.00
2023-04-20T03:11:49.284Z,20.00
2023-04-20T03:14:16.307Z,20.00
2023-04-20T03:16:43.248Z,20.00
2023-04-20T03:19:10.155Z,20.00
2023-04-20T03:21:36.831Z,20.00
2023-04-20T03:24:03.814Z,20.00
2023-04-20T03:26:30.395Z,20.00
2023-04-20T03:28:57.000Z,20.00
2023-04-20T03:31:23.800Z,20.00
2023-04-20T03:33:50.456Z,20.00
2023-04-20T03:36:17.336Z,20.00
2023-04-20T03:38:43.966Z,20.00
2023-04-20T03:41:10.617Z,20.00
2023-04-20T03:43:37.181Z,20.00
2023-04-20T03:46:03.926Z,20.00
2023-04-20T03:48:32.273Z,20.00
2023-04-20T03:50:58.948Z,20.00
2023-04-20T03:53:26.140Z,20.00
2023-04-20T03:55:52.741Z,20.00
2023-04-20T03:58:19.349Z,20.00
2023-04-20T04:00:46.158Z,20.00
2023-04-20T04:03:13.235Z,20.00
2023-04-20T04:05:41.510Z,20.00
2023-04-20T04:08:08.361Z,20.00
2023-04-20T04:10:35.130Z,20.00
2023-04-20T04:13:01.705Z,20.00
2023-04-20T04:15:28.285Z,20.00
2023-04-20T04:17:55.698Z,20.00
2023-04-20T04:20:22.385Z,20.00
2023-04-20T04:22:49.008Z,20.00
2023-04-20T04:25:15.652Z,20.10
2023-04-20T04:27:42.301Z,20.10
2023-04-20T04:30:10.978Z,20.00
2023-04-20T04:32:37.693Z,20.10
2023-04-20T04:35:04.937Z,20.10
2023-04-20T04:37:31.620Z,20.10
2023-04-20T04:39:58.225Z,20.10
2023-04-20T04:42:24.957Z,20.10
2023-04-20T04:44:56.102Z,20.00
2023-04-20T04:47:23.477Z,20.10
2023-04-20T04:49:50.380Z,20.10
2023-04-20T04:52:17.010Z,20.00
2023-04-20T04:54:43.602Z,18.90
2023-04-20T04:57:10.284Z,19.10
2023-04-20T04:59:37.261Z,19.40
2023-04-20T05:02:03.923Z,19.60
2023-04-20T05:04:30.892Z,19.70
2023-04-20T05:06:57.551Z,19.80
2023-04-20T05:09:24.126Z,19.80
2023-04-20T05:11:50.669Z,19.80
2023-04-20T05:14:17.317Z,19.90
2023-04-20T05:16:44.019Z,19.90
2023-04-20T05:19:10.633Z,19.80
2023-04-20T05:21:39.175Z,19.20
2023-04-20T05:24:06.337Z,17.60
2023-04-20T05:26:32.951Z,17.70
2023-04-20T05:28:59.485Z,18.40
2023-04-20T05:31:26.430Z,18.90
2023-04-20T05:33:53.267Z,19.10
2023-04-20T05:36:20.610Z,19.40
2023-04-20T05:38:47.174Z,19.50
2023-04-20T05:41:13.754Z,19.60
2023-04-20T05:43:40.922Z,19.70
2023-04-20T05:46:07.602Z,19.70
2023-04-20T05:48:34.280Z,19.70
2023-04-20T05:51:00.974Z,19.70
2023-04-20T05:53:27.609Z,19.80
2023-04-20T05:55:54.166Z,19.90
2023-04-20T05:58:20.802Z,19.90
2023-04-20T06:00:47.708Z,19.90
2023-04-20T06:03:14.593Z,19.90
2023-04-20T06:05:41.632Z,20.00
2023-04-20T06:08:08.469Z,19.90
2023-04-20T06:10:35.277Z,20.00
2023-04-20T06:13:02.056Z,20.00
2023-04-20T06:15:28.714Z,20.00
2023-04-20T06:17:55.521Z,19.90
2023-04-20T06:20:22.489Z,20.00
2023-04-20T06:22:49.340Z,20.00
2023-04-20T06:25:16.085Z,20.00
2023-04-20T06:27:42.786Z,20.10
2023-04-20T06:30:10.166Z,20.10
2023-04-20T06:32:37.827Z,20.10
2023-04-20T06:35:05.959Z,20.10
2023-04-20T06:37:33.714Z,20.20
2023-04-20T06:40:00.267Z,20.20
2023-04-20T06:42:27.114Z,20.20
2023-04-20T06:44:53.662Z,20.20
2023-04-20T06:47:20.654Z,20.10
2023-04-20T06:49:47.345Z,20.10
2023-04-20T06:52:13.955Z,20.00
2023-04-20T06:54:40.568Z,20.00
2023-04-20T06:57:07.143Z,20.00
2023-04-20T06:59:33.719Z,20.00
2023-04-20T07:02:01.253Z,20.00
2023-04-20T07:04:28.200Z,20.10
2023-04-20T07:06:54.814Z,20.10
2023-04-20T07:09:22.946Z,20.10
2023-04-20T07:11:49.655Z,20.10
2023-04-20T07:14:16.408Z,20.10
2023-04-20T07:16:43.080Z,20.10
2023-04-20T07:19:10.005Z,20.10
2023-04-20T07:21:36.827Z,20.10
2023-04-20T07:24:03.579Z,20.10
2023-04-20T07:26:30.173Z,20.10
2023-04-20T07:28:56.896Z,20.20
2023-04-20T07:31:23.613Z,20.20
2023-04-20T07:33:50.281Z,20.20
2023-04-20T07:36:16.992Z,20.10
2023-04-20T07:38:43.570Z,20.20
2023-04-20T07:41:10.989Z,20.20
2023-04-20T07:43:38.950Z,20.20
2023-04-20T07:46:05.712Z,20.20
2023-04-20T07:48:34.439Z,20.20
2023-04-20T07:51:01.208Z,20.20
2023-04-20T07:53:29.587Z,20.20
2023-04-20T07:58:22.966Z,20.20
2023-04-20T08:00:49.635Z,20.30
2023-04-20T08:03:16.427Z,20.30
2023-04-20T08:05:43.207Z,20.30
2023-04-20T08:08:09.893Z,20.30
2023-04-20T08:10:37.094Z,20.30
2023-04-20T08:13:03.725Z,20.30
2023-04-20T08:15:31.441Z,20.30
2023-04-20T08:17:58.311Z,20.30
2023-04-20T08:20:24.986Z,20.30
2023-04-20T08:22:52.749Z,20.30
2023-04-20T08:25:19.425Z,20.30
2023-04-20T08:27:46.026Z,20.30
2023-04-20T08:30:12.871Z,20.30
2023-04-20T08:32:40.831Z,20.30
2023-04-20T08:35:08.573Z,20.30
2023-04-20T08:37:35.316Z,20.30
2023-04-20T08:40:01.897Z,20.30
2023-04-20T08:42:28.628Z,20.30
2023-04-20T08:44:55.261Z,20.30
2023-04-20T08:47:21.918Z,20.30
2023-04-20T08:49:53.458Z,20.40
2023-04-20T08:52:20.287Z,20.40
2023-04-20T08:54:55.966Z,20.40
2023-04-20T08:57:23.969Z,20.40
2023-04-20T08:59:50.723Z,20.40
2023-04-20T09:02:17.868Z,20.40
2023-04-20T09:04:48.821Z,20.40
2023-04-20T09:07:20.820Z,20.40
2023-04-20T09:09:58.294Z,20.40
2023-04-20T09:12:24.983Z,20.40
2023-04-20T09:14:52.572Z,20.40
2023-04-20T09:17:31.500Z,20.40
2023-04-20T09:19:58.186Z,20.40
2023-04-20T09:22:33.264Z,20.40
2023-04-20T09:25:01.149Z,20.40
2023-04-20T09:27:27.898Z,20.40
2023-04-20T09:30:01.604Z,20.40
2023-04-20T09:32:28.867Z,20.40
2023-04-20T09:34:56.296Z,20.40
2023-04-20T09:37:23.146Z,20.40
2023-04-20T09:39:50.291Z,20.40
2023-04-20T09:42:17.841Z,20.40
2023-04-20T09:44:44.820Z,20.40
2023-04-20T09:47:18.384Z,20.40
2023-04-20T09:49:46.837Z,20.40
2023-04-20T09:52:18.262Z,20.40
2023-04-20T09:54:45.342Z,20.40
2023-04-20T09:57:13.473Z,20.40
2023-04-20T09:59:43.653Z,20.40
2023-04-20T10:02:14.285Z,20.40
2023-04-20T10:04:57.664Z,20.40
2023-04-20T10:07:29.110Z,20.40
2023-04-20T10:10:08.920Z,20.40
2023-04-20T10:12:48.201Z,20.40
2023-04-20T10:15:14.846Z,20.40
2023-04-20T10:17:41.586Z,20.40
2023-04-20T10:20:28.781Z,20.40
2023-04-20T10:23:10.252Z,20.40
2023-04-20T10:25:37.369Z,20.40
2023-04-20T10:28:08.293Z,20.40
2023-04-20T10:30:35.366Z,20.40
2023-04-20T10:33:11.076Z,20.40
2023-04-20T10:35:51.098Z,20.40
2023-04-20T10:38:35.195Z,20.40
2023-04-20T10:41:11.326Z,20.40
2023-04-20T10:43:42.238Z,20.40
2023-04-20T10:46:18.655Z,20.50
2023-04-20T10:48:56.153Z,20.50
2023-04-20T10:51:24.073Z,20.50
2023-04-20T10:54:07.688Z,20.40
2023-04-20T10:56:39.800Z,20.50
2023-04-20T10:59:08.509Z,20.50
2023-04-20T11:01:35.590Z,20.50
2023-04-20T11:04:02.663Z,20.50
2023-04-20T11:06:29.543Z,20.50
2023-04-20T11:08:56.252Z,20.50
2023-04-20T11:11:25.467Z,20.50
2023-04-20T11:13:52.161Z,20.50
2023-04-20T11:16:19.509Z,20.50
2023-04-20T11:18:53.869Z,20.50
2023-04-20T11:21:22.003Z,20.50
2023-04-20T11:23:49.457Z,20.60
2023-04-20T11:26:17.065Z,20.50
2023-04-20T11:28:55.940Z,20.40
2023-04-20T11:31:23.197Z,20.50
2023-04-20T11:33:50.018Z,20.50
2023-04-20T11:36:23.996Z,20.50
2023-04-20T11:38:51.363Z,20.50
2023-04-20T11:41:18.536Z,20.50
2023-04-20T11:43:45.904Z,20.40
2023-04-20T11:46:17.720Z,20.50
2023-04-20T11:48:45.190Z,20.50
2023-04-20T11:51:11.788Z,20.50
2023-04-20T11:53:38.612Z,20.50
2023-04-20T11:56:05.660Z,20.50
2023-04-20T11:58:32.285Z,20.50
2023-04-20T12:01:00.001Z,20.50
2023-04-20T12:03:27.361Z,20.50
2023-04-20T12:05:54.206Z,20.50
2023-04-20T12:08:20.944Z,20.50
2023-04-20T12:10:47.541Z,20.50
2023-04-20T12:13:14.898Z,20.50
2023-04-20T12:15:41.630Z,20.50
2023-04-20T12:18:08.432Z,20.50
2023-04-20T12:20:35.337Z,20.50
2023-04-20T12:23:02.390Z,20.50
2023-04-20T12:25:28.995Z,20.50
2023-04-20T12:27:55.706Z,20.50
2023-04-20T12:30:22.354Z,20.50
2023-04-20T12:32:49.026Z,20.50
2023-04-20T12:35:15.712Z,20.50
2023-04-20T12:37:42.397Z,20.50
2023-04-20T12:40:10.075Z,20.50
2023-04-20T12:42:36.669Z,20.50
2023-04-20T12:45:03.538Z,20.50
2023-04-20T12:47:30.173Z,20.50
2023-04-20T12:49:56.797Z,20.50
2023-04-20T12:52:23.435Z,20.40
2023-04-20T12:54:50.666Z,20.50
2023-04-20T12:57:17.357Z,20.40
2023-04-20T12:59:43.994Z,20.50
2023-04-20T13:02:11.857Z,20.50
2023-04-20T13:04:38.685Z,20.50
2023-04-20T13:07:05.974Z,20.40
2023-04-20T13:09:32.687Z,20.40
2023-04-20T13:11:59.285Z,20.40
2023-04-20T13:14:26.545Z,20.40
2023-04-20T13:16:55.111Z,20.50
2023-04-20T13:19:22.250Z,20.40
2023-04-20T13:21:48.892Z,20.40
2023-04-20T13:24:15.691Z,20.40
2023-04-20T13:26:42.446Z,20.40
2023-04-20T13:29:09.063Z,20.40
2023-04-20T13:31:38.854Z,20.50
2023-04-20T13:34:05.518Z,20.50
2023-04-20T13:36:33.121Z,20.40
2023-04-20T13:39:01.978Z,20.50
2023-04-20T13:41:28.603Z,20.40
2023-04-20T13:43:57.096Z,20.40
2023-04-20T13:46:24.057Z,20.50
2023-04-20T13:48:50.817Z,20.50
2023-04-20T13:51:17.433Z,20.40
2023-04-20T13:53:44.123Z,20.50
2023-04-20T13:56:10.869Z,20.40
2023-04-20T13:58:37.409Z,20.50
2023-04-20T14:01:08.732Z,20.50
2023-04-20T14:03:35.460Z,20.50
2023-04-20T14:06:02.143Z,20.50
2023-04-20T14:08:28.730Z,20.50
2023-04-20T14:10:55.749Z,20.50
2023-04-20T14:13:23.569Z,20.50
2023-04-20T14:15:51.246Z,20.50
2023-04-20T14:18:17.897Z,20.50
2023-04-20T14:20:44.915Z,20.50
2023-04-20T14:23:11.745Z,20.50
2023-04-20T14:25:38.660Z,20.40
2023-04-20T14:28:05.384Z,20.50
2023-04-20T14:30:31.977Z,20.50
2023-04-20T14:33:00.382Z,20.50
2023-04-20T14:35:28.033Z,20.50
2023-04-20T14:37:54.737Z,20.40
2023-04-20T14:40:21.555Z,20.50
2023-04-20T14:42:48.144Z,20.50
2023-04-20T14:45:14.729Z,20.50
2023-04-20T14:47:41.328Z,20.40
2023-04-20T14:50:09.011Z,20.40
2023-04-20T14:52:35.618Z,20.50
2023-04-20T14:55:02.741Z,20.40
2023-04-20T14:57:29.587Z,20.40
2023-04-20T14:59:56.145Z,20.50
2023-04-20T15:02:22.876Z,20.40
2023-04-20T15:04:50.256Z,20.40
2023-04-20T15:07:17.746Z,20.40
2023-04-20T15:09:44.357Z,20.40
2023-04-20T15:12:11.195Z,20.40
2023-04-20T15:14:37.794Z,20.40
2023-04-20T15:17:04.440Z,20.40
2023-04-20T15:19:31.141Z,20.40
2023-04-20T15:21:57.688Z,20.40
2023-04-20T15:24:24.274Z,20.40
2023-04-20T15:26:51.034Z,20.40
2023-04-20T15:29:17.591Z,20.40
2023-04-20T15:31:45.884Z,20.40
2023-04-20T15:34:17.118Z,20.40
2023-04-20T15:36:44.394Z,20.40
2023-04-20T15:39:11.318Z,20.40
2023-04-20T15:41:37.927Z,20.40
2023-04-20T15:44:04.614Z,20.40
2023-04-20T15:46:31.313Z,20.40
2023-04-20T15:48:58.146Z,20.40
2023-04-20T15:51:24.891Z,20.40
2023-04-20T15:53:51.775Z,20.40
2023-04-20T15:56:18.684Z,20.40
2023-04-20T15:58:46.256Z,20.40
2023-04-20T16:01:12.933Z,20.40
2023-04-20T16:03:39.889Z,20.40
2023-04-20T16:06:07.204Z,20.40
2023-04-20T16:08:33.792Z,20.40
2023-04-20T16:11:00.519Z,20.40
2023-04-20T16:13:27.166Z,20.40
2023-04-20T16:15:55.735Z,20.40
2023-04-20T16:18:22.374Z,20.40
2023-04-20T16:20:48.965Z,20.40
2023-04-20T16:23:15.880Z,20.40
2023-04-20T16:25:42.492Z,20.40
2023-04-20T16:28:09.300Z,20.40
2023-04-20T16:30:38.756Z,20.40
2023-04-20T16:33:05.688Z,20.40
2023-04-20T16:35:32.390Z,20.40
2023-04-20T16:37:59.033Z,20.40
2023-04-20T16:40:26.214Z,20.40
2023-04-20T16:42:52.829Z,20.40
2023-04-20T16:45:19.493Z,20.40
2023-04-20T16:47:46.662Z,20.40
2023-04-20T16:50:19.084Z,20.40
2023-04-20T16:52:47.016Z,20.40
2023-04-20T16:55:13.842Z,20.40
2023-04-20T16:57:41.988Z,20.40
2023-04-20T17:00:10.607Z,20.40
2023-04-20T17:02:37.723Z,20.40
2023-04-20T17:05:05.806Z,20.40
2023-04-20T17:07:32.433Z,20.40
2023-04-20T17:09:59.893Z,20.40
2023-04-20T17:12:26.556Z,20.40
2023-04-20T17:14:53.187Z,20.40
2023-04-20T17:17:19.797Z,20.40
2023-04-20T17:19:46.897Z,20.40
2023-04-20T17:22:13.575Z,19.30
2023-04-20T17:24:40.174Z,18.60
2023-04-20T17:27:06.774Z,18.10
2023-04-20T17:29:38.116Z,18.50
2023-04-20T17:32:05.952Z,19.00
2023-04-20T17:34:32.924Z,19.40
2023-04-20T17:36:59.673Z,19.60
2023-04-20T17:39:26.585Z,19.80
2023-04-20T17:41:53.229Z,19.80
2023-04-20T17:44:20.611Z,19.90
2023-04-20T17:46:49.565Z,19.90
2023-04-20T17:49:16.199Z,18.80
2023-04-20T17:51:42.766Z,18.10
2023-04-20T17:54:09.628Z,17.80
2023-04-20T17:56:36.345Z,17.40
2023-04-20T17:59:03.284Z,17.00
2023-04-20T18:01:34.282Z,17.10
2023-04-20T18:04:01.381Z,17.20
2023-04-20T18:06:29.910Z,17.30
2023-04-20T18:08:58.170Z,17.40
2023-04-20T18:11:25.191Z,17.40
2023-04-20T18:13:51.752Z,17.30
2023-04-20T18:16:18.484Z,17.60
2023-04-20T18:18:45.252Z,18.10
2023-04-20T18:21:14.057Z,18.40
2023-04-20T18:23:40.973Z,18.60
2023-04-20T18:26:10.299Z,18.80
2023-04-20T18:28:37.021Z,18.90
2023-04-20T18:31:03.709Z,19.00
2023-04-20T18:33:30.339Z,19.10
2023-04-20T18:35:56.945Z,19.10
2023-04-20T18:38:23.530Z,19.20
2023-04-20T18:40:50.213Z,19.20
2023-04-20T18:43:16.949Z,19.30
2023-04-20T18:45:43.706Z,19.30
2023-04-20T18:48:10.787Z,19.30
2023-04-20T18:50:37.613Z,19.40
2023-04-20T18:53:07.709Z,19.40
2023-04-20T18:55:34.388Z,19.40
2023-04-20T18:58:01.131Z,19.50
2023-04-20T19:00:27.763Z,19.60
2023-04-20T19:02:54.557Z,19.60
2023-04-20T19:05:21.377Z,19.60
2023-04-20T19:07:48.070Z,19.50
2023-04-20T19:10:14.746Z,19.50
2023-04-20T19:12:41.740Z,19.50
2023-04-20T19:15:08.909Z,19.50
2023-04-20T19:17:36.362Z,19.60
2023-04-20T19:20:04.225Z,19.60
2023-04-20T19:22:30.810Z,19.60
2023-04-20T19:24:57.425Z,19.70
2023-04-20T19:27:24.051Z,19.70
2023-04-20T19:29:51.282Z,19.70
2023-04-20T19:32:17.974Z,19.70
2023-04-20T19:34:44.638Z,19.70
2023-04-20T19:37:11.292Z,19.80
2023-04-20T19:39:38.074Z,19.90
2023-04-20T19:42:04.741Z,20.00
2023-04-20T19:44:31.439Z,19.90
2023-04-20T19:46:58.038Z,20.00
2023-04-20T19:49:24.725Z,19.90
2023-04-20T19:51:51.310Z,19.90
2023-04-20T19:54:18.065Z,20.00
2023-04-20T19:56:44.698Z,20.00
2023-04-20T19:59:11.290Z,20.00
2023-04-20T20:01:37.988Z,20.00
2023-04-20T20:04:04.997Z,20.00
2023-04-20T20:06:32.483Z,20.00
2023-04-20T20:09:00.551Z,20.00
2023-04-20T20:11:27.637Z,20.10
2023-04-20T20:13:54.408Z,20.00
2023-04-20T20:16:21.127Z,20.00
2023-04-20T20:18:48.334Z,20.00
2023-04-20T20:21:15.037Z,20.10
2023-04-20T20:23:41.658Z,20.10
2023-04-20T20:26:08.269Z,20.10
2023-04-20T20:28:34.825Z,20.10
2023-04-20T20:31:01.535Z,20.10
2023-04-20T20:33:28.156Z,20.10
2023-04-20T20:35:55.182Z,20.10
2023-04-20T20:38:22.492Z,20.10
2023-04-20T20:40:50.432Z,20.10
2023-04-20T20:43:18.857Z,20.10
2023-04-20T20:45:47.124Z,20.10
2023-04-20T20:48:13.805Z,20.10
2023-04-20T20:50:40.482Z,20.10
2023-04-20T20:53:07.101Z,20.10
2023-04-20T20:55:33.746Z,20.10
2023-04-20T20:58:00.539Z,20.10
2023-04-20T21:00:27.237Z,20.10
2023-04-20T21:02:54.034Z,20.10
2023-04-20T21:05:22.840Z,20.10
2023-04-20T21:07:49.797Z,20.20
2023-04-20T21:10:16.412Z,20.10
2023-04-20T21:12:43.573Z,20.10
2023-04-20T21:15:10.778Z,20.10
2023-04-20T21:17:37.343Z,20.20
2023-04-20T21:20:05.677Z,20.10
2023-04-20T21:22:32.290Z,20.20
2023-04-20T21:24:58.841Z,20.20
2023-04-20T21:27:25.427Z,20.20
2023-04-20T21:29:51.978Z,20.10
2023-04-20T21:32:18.667Z,20.20
2023-04-20T21:34:45.458Z,20.20
2023-04-20T21:37:12.096Z,20.20
2023-04-20T21:39:38.650Z,20.20
2023-04-20T21:42:05.500Z,20.20
2023-04-20T21:44:32.120Z,20.20
2023-04-20T21:46:59.135Z,20.20
2023-04-20T21:49:25.706Z,20.20
2023-04-20T21:51:52.259Z,20.30
2023-04-20T21:54:18.991Z,20.20
2023-04-20T21:56:46.435Z,20.20
2023-04-20T21:59:14.274Z,20.30
2023-04-20T22:01:40.858Z,20.30
2023-04-20T22:04:09.454Z,20.20
2023-04-20T22:06:36.115Z,20.30
2023-04-20T22:09:03.009Z,20.30
2023-04-20T22:11:29.951Z,20.30
2023-04-20T22:13:57.244Z,20.30
2023-04-20T22:16:24.214Z,20.30
2023-04-20T22:18:51.005Z,20.30
2023-04-20T22:21:17.551Z,20.30
2023-04-20T22:23:44.110Z,20.30
2023-04-20T22:26:10.716Z,20.40
2023-04-20T22:28:37.324Z,20.40
2023-04-20T22:31:03.984Z,20.30
2023-04-20T22:33:30.833Z,20.40
2023-04-20T22:35:57.395Z,20.40
2023-04-20T22:38:24.054Z,20.40
2023-04-20T22:40:50.661Z,20.40
2023-04-20T22:43:17.230Z,20.40
2023-04-20T22:45:43.768Z,20.40
2023-04-20T22:48:10.323Z,20.40
2023-04-20T22:50:37.127Z,20.40
2023-04-20T22:53:04.268Z,20.40
2023-04-20T22:55:30.878Z,20.40
2023-04-20T22:57:57.463Z,20.40
2023-04-20T23:00:24.052Z,20.40
2023-04-20T23:02:51.461Z,20.40
2023-04-20T23:05:20.201Z,20.40
2023-04-20T23:07:46.966Z,20.40
2023-04-20T23:10:16.126Z,20.40
2023-04-20T23:12:44.460Z,20.40
2023-04-20T23:15:11.857Z,20.40
2023-04-20T23:17:39.452Z,20.40
2023-04-20T23:20:13.660Z,20.40
2023-04-20T23:22:40.687Z,20.40
2023-04-20T23:25:07.961Z,20.40
2023-04-20T23:27:34.534Z,20.40
2023-04-20T23:30:01.365Z,20.40
2023-04-20T23:32:27.995Z,20.50
2023-04-20T23:34:54.606Z,20.40
2023-04-20T23:37:21.201Z,20.40
2023-04-20T23:39:47.765Z,20.40
2023-04-20T23:42:14.370Z,20.40
2023-04-20T23:44:40.979Z,20.40
2023-04-20T23:47:07.648Z,20.50
2023-04-20T23:49:34.224Z,20.40
2023-04-20T23:52:00.964Z,20.40
2023-04-20T23:54:27.589Z,20.40
2023-04-20T23:56:55.421Z,20.40
2023-04-20T23:59:21.997Z,20.40
